createdAt,value
2018-09-25T00:02:18.401Z,101961.44
2018-09-25T00:04:50.968Z,101959.76
2018-09-25T00:07:23.663Z,101962.48
2018-09-25T00:09:56.663Z,101961.16
2018-09-25T00:12:29.420Z,101956.83
2018-09-25T00:15:02.007Z,101961.77
2018-09-25T00:17:35.008Z,101955.26
2018-09-25T00:20:07.656Z,101956.19
2018-09-25T00:22:40.374Z,101958.39
2018-09-25T00:25:13.356Z,101961.92
2018-09-25T00:27:46.072Z,101960.56
2018-09-25T00:30:18.637Z,101956.95
2018-09-25T00:32:51.717Z,101964.81
2018-09-25T00:35:24.372Z,101970.44
2018-09-25T00:37:56.972Z,101966.86
2018-09-25T00:40:30.034Z,101961.09
2018-09-25T00:43:02.669Z,101967.27
2018-09-25T00:45:35.358Z,101970.84
2018-09-25T00:48:08.321Z,101971.77
2018-09-25T00:50:40.935Z,101966.95
2018-09-25T00:53:13.987Z,101968.39
2018-09-25T00:55:46.638Z,101969.88
2018-09-25T00:58:19.257Z,101971.36
2018-09-25T01:00:53.358Z,101974.09
2018-09-25T01:03:25.969Z,101978.19
2018-09-25T01:05:58.505Z,101975.65
2018-09-25T01:08:31.114Z,101975.69
2018-09-25T01:11:03.848Z,101980.95
2018-09-25T01:13:36.477Z,101986.17
2018-09-25T01:16:09.592Z,101987.50
2018-09-25T01:18:42.195Z,101982.36
2018-09-25T01:21:15.144Z,101990.05
2018-09-25T01:23:47.850Z,101988.48
2018-09-25T01:26:20.512Z,101988.67
2018-09-25T01:28:53.088Z,101990.59
2018-09-25T01:31:26.197Z,101988.97
2018-09-25T01:33:58.865Z,101990.81
2018-09-25T01:36:32.261Z,101993.02
2018-09-25T01:39:05.127Z,101992.73
2018-09-25T01:41:37.827Z,101995.05
2018-09-25T01:44:10.493Z,101993.83
2018-09-25T01:46:43.201Z,101997.95
2018-09-25T01:49:16.093Z,102003.83
2018-09-25T01:51:48.809Z,102000.48
2018-09-25T01:54:21.372Z,102011.61
2018-09-25T01:56:54.105Z,102002.53
2018-09-25T01:59:27.631Z,102000.44
2018-09-25T02:02:00.393Z,102002.30
2018-09-25T02:04:33.156Z,101990.47
2018-09-25T02:07:08.045Z,101991.39
2018-09-25T02:09:40.608Z,101995.42
2018-09-25T02:12:13.375Z,101996.64
2018-09-25T02:14:46.988Z,101990.39
2018-09-25T02:17:19.911Z,101993.05
2018-09-25T02:19:52.683Z,101995.17
2018-09-25T02:22:30.369Z,102001.72
2018-09-25T02:25:03.171Z,102005.69
2018-09-25T02:27:35.965Z,102002.67
2018-09-25T02:30:11.057Z,102004.55
2018-09-25T02:32:43.791Z,102006.67
2018-09-25T02:35:24.172Z,102008.81
2018-09-25T02:37:57.697Z,102015.29
2018-09-25T02:40:30.447Z,102011.25
2018-09-25T02:43:03.520Z,102012.50
2018-09-25T02:45:38.327Z,102013.34
2018-09-25T02:48:11.189Z,102018.09
2018-09-25T02:50:44.665Z,102014.97
2018-09-25T02:53:17.897Z,102012.28
2018-09-25T02:55:50.525Z,102009.67
2018-09-25T02:58:23.633Z,102008.83
2018-09-25T03:00:56.408Z,102015.38
2018-09-25T03:03:28.950Z,102008.31
2018-09-25T03:06:01.992Z,102014.89
2018-09-25T03:08:34.807Z,102010.15
2018-09-25T03:11:08.401Z,102001.84
2018-09-25T03:13:40.978Z,101999.70
2018-09-25T03:16:14.245Z,102002.91
2018-09-25T03:18:47.800Z,102010.47
2018-09-25T03:21:20.605Z,102017.16
2018-09-25T03:23:53.423Z,102022.55
2018-09-25T03:26:27.234Z,102023.06
2018-09-25T03:29:00.032Z,102023.98
2018-09-25T03:31:32.616Z,102025.34
2018-09-25T03:34:05.766Z,102027.17
2018-09-25T03:36:38.578Z,102026.39
2018-09-25T03:39:11.371Z,102030.94
2018-09-25T03:41:44.399Z,102025.41
2018-09-25T03:44:17.061Z,102021.68
2018-09-25T03:46:49.808Z,102018.32
2018-09-25T03:49:24.950Z,102015.41
2018-09-25T03:51:57.680Z,102012.92
2018-09-25T03:54:30.436Z,102014.78
2018-09-25T03:57:03.444Z,102023.25
2018-09-25T03:59:36.802Z,102021.11
2018-09-25T04:02:09.522Z,102025.20
2018-09-25T04:04:42.587Z,102031.47
2018-09-25T04:07:16.553Z,102027.66
2018-09-25T04:09:50.395Z,102029.55
2018-09-25T04:12:23.738Z,102023.91
2018-09-25T04:14:56.496Z,102029.30
2018-09-25T04:17:30.047Z,102029.39
2018-09-25T04:20:02.672Z,102033.41
2018-09-25T04:22:36.141Z,102036.55
2018-09-25T04:25:09.100Z,102030.89
2018-09-25T04:27:41.847Z,102038.02
2018-09-25T04:30:14.808Z,102037.61
2018-09-25T04:32:47.319Z,102043.40
2018-09-25T04:35:20.360Z,102042.08
2018-09-25T04:37:53.148Z,102047.80
2018-09-25T04:40:25.862Z,102055.28
2018-09-25T04:42:59.971Z,102057.93
2018-09-25T04:45:32.700Z,102053.05
2018-09-25T04:48:05.988Z,102058.75
2018-09-25T04:50:38.636Z,102066.27
2018-09-25T04:53:11.391Z,102060.95
2018-09-25T04:55:43.967Z,102063.59
2018-09-25T04:58:18.849Z,102063.65
2018-09-25T05:00:51.921Z,102067.64
2018-09-25T05:03:24.860Z,102066.41
2018-09-25T05:05:58.627Z,102075.74
2018-09-25T05:08:31.360Z,102066.17
2018-09-25T05:11:04.252Z,102067.61
2018-09-25T05:13:37.758Z,102071.24
2018-09-25T05:16:10.268Z,102072.20
2018-09-25T05:18:43.417Z,102070.50
2018-09-25T05:21:17.156Z,102079.39
2018-09-25T05:23:50.815Z,102078.94
2018-09-25T05:26:23.413Z,102079.44
2018-09-25T05:28:56.414Z,102083.02
2018-09-25T05:31:29.221Z,102083.98
2018-09-25T05:34:02.804Z,102088.40
2018-09-25T05:36:37.421Z,102086.23
2018-09-25T05:39:10.012Z,102092.86
2018-09-25T05:41:42.827Z,102091.97
2018-09-25T05:44:16.654Z,102091.10
2018-09-25T05:46:50.497Z,102095.47
2018-09-25T05:49:23.332Z,102092.83
2018-09-25T05:51:56.224Z,102090.58
2018-09-25T05:54:30.021Z,102094.02
2018-09-25T05:57:02.775Z,102087.66
2018-09-25T05:59:35.580Z,102094.19
2018-09-25T06:02:08.689Z,102089.23
2018-09-25T06:04:41.417Z,102092.67
2018-09-25T06:07:15.841Z,102090.41
2018-09-25T06:09:51.689Z,102092.12
2018-09-25T06:12:25.721Z,102091.59
2018-09-25T06:14:59.937Z,102100.66
2018-09-25T06:17:32.544Z,102090.45
2018-09-25T06:20:05.308Z,102089.42
2018-09-25T06:22:38.013Z,102094.59
2018-09-25T06:25:12.417Z,102090.07
2018-09-25T06:27:45.207Z,102094.73
2018-09-25T06:30:17.958Z,102104.25
2018-09-25T06:32:51.187Z,102097.94
2018-09-25T06:35:25.656Z,102112.23
2018-09-25T06:37:58.331Z,102102.38
2018-09-25T06:40:31.521Z,102109.25
2018-09-25T06:43:06.208Z,102109.91
2018-09-25T06:45:40.261Z,102113.72
2018-09-25T06:48:13.908Z,102107.79
2018-09-25T06:50:46.738Z,102118.62
2018-09-25T06:53:19.489Z,102123.75
2018-09-25T06:55:52.220Z,102127.52
2018-09-25T06:58:26.271Z,102136.62
2018-09-25T07:00:59.350Z,102125.45
2018-09-25T07:03:33.140Z,102127.87
2018-09-25T07:06:06.790Z,102132.05
2018-09-25T07:08:39.852Z,102134.20
2018-09-25T07:11:12.590Z,102133.23
2018-09-25T07:13:46.797Z,102137.66
2018-09-25T07:16:19.842Z,102133.40
2018-09-25T07:18:52.600Z,102144.19
2018-09-25T07:21:25.677Z,102142.59
2018-09-25T07:23:58.344Z,102145.83
2018-09-25T07:26:31.288Z,102148.98
2018-09-25T07:29:04.072Z,102145.55
2018-09-25T07:31:37.625Z,102138.05
2018-09-25T07:34:10.308Z,102146.49
2018-09-25T07:36:43.112Z,102149.63
2018-09-25T07:39:17.008Z,102155.41
2018-09-25T07:41:50.405Z,102152.09
2018-09-25T07:44:26.051Z,102149.77
2018-09-25T07:46:59.469Z,102143.41
2018-09-25T07:49:32.473Z,102146.33
2018-09-25T07:52:05.056Z,102150.14
2018-09-25T07:54:38.058Z,102153.05
2018-09-25T07:57:11.200Z,102150.77
2018-09-25T07:59:43.978Z,102155.48
2018-09-25T08:02:16.599Z,102165.06
2018-09-25T08:04:50.559Z,102157.84
2018-09-25T08:07:23.440Z,102158.54
2018-09-25T08:09:57.561Z,102162.06
2018-09-25T08:12:30.343Z,102159.30
2018-09-25T08:15:03.441Z,102166.73
2018-09-25T08:17:36.059Z,102165.23
2018-09-25T08:20:08.772Z,102170.19
2018-09-25T08:22:42.683Z,102170.84
2018-09-25T08:25:15.936Z,102164.91
2018-09-25T08:27:48.660Z,102177.05
2018-09-25T08:30:21.692Z,102183.73
2018-09-25T08:32:54.427Z,102180.94
2018-09-25T08:35:27.391Z,102183.47
2018-09-25T08:38:01.347Z,102178.58
2018-09-25T08:40:34.389Z,102177.17
2018-09-25T08:43:07.276Z,102172.31
2018-09-25T08:45:40.093Z,102172.93
2018-09-25T08:48:17.795Z,102173.89
2018-09-25T08:50:51.035Z,102169.95
2018-09-25T08:53:23.880Z,102170.02
2018-09-25T08:55:56.812Z,102161.96
2018-09-25T08:58:30.484Z,102167.23
2018-09-25T09:03:43.518Z,102176.26
2018-09-25T09:06:18.504Z,102181.91
2018-09-25T09:08:51.600Z,102188.14
2018-09-25T09:11:25.250Z,102187.84
2018-09-25T09:13:58.311Z,102196.62
2018-09-25T09:16:31.829Z,102193.17
2018-09-25T09:19:06.078Z,102188.63
2018-09-25T09:21:39.045Z,102189.20
2018-09-25T09:24:11.798Z,102178.17
2018-09-25T09:26:44.564Z,102176.27
2018-09-25T09:29:17.849Z,102181.93
2018-09-25T09:31:51.217Z,102185.64
2018-09-25T09:34:25.228Z,102185.63
2018-09-25T09:37:00.732Z,102185.38
2018-09-25T09:39:33.712Z,102181.54
2018-09-25T09:42:06.611Z,102177.77
2018-09-25T09:44:40.304Z,102173.09
2018-09-25T09:47:13.937Z,102170.66
2018-09-25T09:49:46.596Z,102171.30
2018-09-25T09:52:23.060Z,102167.75
2018-09-25T09:54:56.465Z,102170.53
2018-09-25T09:57:30.308Z,102163.04
2018-09-25T10:00:03.356Z,102164.09
2018-09-25T10:02:36.053Z,102168.58
2018-09-25T10:05:10.885Z,102168.28
2018-09-25T10:07:44.852Z,102166.17
2018-09-25T10:10:17.541Z,102162.20
2018-09-25T10:12:51.498Z,102163.58
2018-09-25T10:15:25.740Z,102161.53
2018-09-25T10:17:58.368Z,102164.42
2018-09-25T10:20:31.100Z,102165.17
2018-09-25T10:23:06.177Z,102157.14
2018-09-25T10:25:38.907Z,102157.34
2018-09-25T10:28:12.305Z,102167.22
2018-09-25T10:30:50.343Z,102156.47
2018-09-25T10:33:23.375Z,102158.63
2018-09-25T10:35:56.462Z,102155.59
2018-09-25T10:38:31.377Z,102159.98
2018-09-25T10:41:04.156Z,102160.27
2018-09-25T10:43:36.875Z,102160.98
2018-09-25T10:46:12.008Z,102158.96
2018-09-25T10:48:44.612Z,102152.10
2018-09-25T10:51:18.235Z,102156.27
2018-09-25T10:53:51.461Z,102159.13
2018-09-25T10:56:26.970Z,102159.13
2018-09-25T10:58:59.995Z,102154.52
2018-09-25T11:01:33.427Z,102158.66
2018-09-25T11:04:06.113Z,102164.54
2018-09-25T11:06:40.457Z,102161.34
2018-09-25T11:09:13.090Z,102169.02
2018-09-25T11:11:46.512Z,102170.41
2018-09-25T11:14:22.390Z,102175.05
2018-09-25T11:16:56.480Z,102175.74
2018-09-25T11:19:31.679Z,102180.11
2018-09-25T11:22:05.336Z,102185.53
2018-09-25T11:24:38.100Z,102194.02
2018-09-25T11:27:12.265Z,102196.02
2018-09-25T11:29:45.515Z,102198.31
2018-09-25T11:32:18.248Z,102202.86
2018-09-25T11:34:51.128Z,102199.19
2018-09-25T11:37:24.191Z,102209.11
2018-09-25T11:39:57.500Z,102208.16
2018-09-25T11:42:30.271Z,102205.09
2018-09-25T11:45:05.559Z,102209.48
2018-09-25T11:47:39.413Z,102199.34
2018-09-25T11:50:12.274Z,102199.15
2018-09-25T11:52:46.346Z,102197.46
2018-09-25T11:55:19.122Z,102185.92
2018-09-25T11:57:53.476Z,102173.20
2018-09-25T12:00:26.399Z,102179.27
2018-09-25T12:03:00.124Z,102176.95
2018-09-25T12:05:34.279Z,102179.45
2018-09-25T12:08:10.612Z,102183.55
2018-09-25T12:10:45.520Z,102185.23
2018-09-25T12:13:19.238Z,102188.36
2018-09-25T12:15:51.997Z,102197.55
2018-09-25T12:18:26.525Z,102194.05
2018-09-25T12:20:59.122Z,102184.48
2018-09-25T12:23:34.002Z,102168.58
2018-09-25T12:26:08.896Z,102149.39
2018-09-25T12:28:41.480Z,102141.73
2018-09-25T12:31:14.243Z,102151.79
2018-09-25T12:33:47.267Z,102152.34
2018-09-25T12:36:19.832Z,102154.91
2018-09-25T12:38:53.578Z,102151.36
2018-09-25T12:41:28.382Z,102144.59
2018-09-25T12:44:01.040Z,102138.31
2018-09-25T12:46:33.755Z,102142.96
2018-09-25T12:49:07.562Z,102144.76
2018-09-25T12:51:40.168Z,102135.58
2018-09-25T12:54:12.889Z,102131.21
2018-09-25T12:56:46.371Z,102130.19
2018-09-25T12:59:18.964Z,102119.85
2018-09-25T13:01:54.523Z,102114.46
2018-09-25T13:04:27.209Z,102110.41
2018-09-25T13:07:00.335Z,102104.25
2018-09-25T13:09:36.312Z,102100.20
2018-09-25T13:12:12.375Z,102097.39
2018-09-25T13:14:45.758Z,102092.47
2018-09-25T13:17:18.449Z,102090.14
2018-09-25T13:19:51.311Z,102090.64
2018-09-25T13:22:24.604Z,102093.56
2018-09-25T13:24:57.413Z,102088.16
2018-09-25T13:27:31.719Z,102086.05
2018-09-25T13:30:05.033Z,102083.34
2018-09-25T13:32:37.726Z,102081.63
2018-09-25T13:35:12.846Z,102075.69
2018-09-25T13:37:46.738Z,102071.74
2018-09-25T13:40:22.330Z,102069.14
2018-09-25T13:42:55.306Z,102070.02
2018-09-25T13:45:30.935Z,102070.38
2018-09-25T13:48:10.768Z,102065.36
2018-09-25T13:50:43.461Z,102069.05
2018-09-25T13:53:16.434Z,102065.00
2018-09-25T13:55:49.208Z,102061.10
2018-09-25T13:58:22.954Z,102056.69
2018-09-25T14:00:55.816Z,102063.59
2018-09-25T14:03:29.222Z,102057.23
2018-09-25T14:06:02.409Z,102053.48
2018-09-25T14:08:38.457Z,102049.02
2018-09-25T14:11:11.623Z,102056.72
2018-09-25T14:13:45.392Z,102056.29
2018-09-25T14:16:19.148Z,102047.94
2018-09-25T14:18:51.828Z,102041.72
2018-09-25T14:21:24.439Z,102049.47
2018-09-25T14:23:58.459Z,102046.81
2018-09-25T14:26:32.070Z,102034.55
2018-09-25T14:29:04.777Z,102032.63
2018-09-25T14:31:39.548Z,102030.30
2018-09-25T14:34:12.877Z,102031.17
2018-09-25T14:36:47.994Z,102027.48
2018-09-25T14:39:21.644Z,102023.77
2018-09-25T14:41:54.259Z,102018.88
2018-09-25T14:44:27.952Z,102020.02
2018-09-25T14:47:03.106Z,102010.14
2018-09-25T14:49:35.747Z,102011.98
2018-09-25T14:52:10.073Z,102006.09
2018-09-25T14:54:42.752Z,102002.77
2018-09-25T14:57:16.487Z,102005.95
2018-09-25T14:59:50.717Z,102008.39
2018-09-25T15:02:23.347Z,102000.34
2018-09-25T15:04:56.594Z,102003.52
2018-09-25T15:07:30.239Z,102004.27
2018-09-25T15:10:02.824Z,101997.88
2018-09-25T15:12:36.434Z,101999.23
2018-09-25T15:15:09.542Z,101995.23
2018-09-25T15:17:43.432Z,101996.67
2018-09-25T15:20:16.976Z,101994.38
2018-09-25T15:22:50.004Z,101999.30
2018-09-25T15:28:02.874Z,101995.22
2018-09-25T15:30:37.406Z,101987.09
2018-09-25T15:33:11.459Z,101987.42
2018-09-25T15:35:45.431Z,101994.38
2018-09-25T15:38:20.273Z,101998.42
2018-09-25T15:40:53.663Z,101988.27
2018-09-25T15:43:26.432Z,101986.39
2018-09-25T15:45:59.739Z,101991.11
2018-09-25T15:48:33.843Z,101983.61
2018-09-25T15:51:07.410Z,101984.36
2018-09-25T15:53:41.437Z,101982.78
2018-09-25T15:56:15.654Z,101979.12
2018-09-25T15:58:50.320Z,101979.23
2018-09-25T16:01:24.377Z,101978.48
2018-09-25T16:03:59.506Z,101976.36
2018-09-25T16:06:40.965Z,101983.83
2018-09-25T16:09:14.590Z,101988.23
2018-09-25T16:11:47.367Z,101986.09
2018-09-25T16:14:20.347Z,101981.91
2018-09-25T16:16:53.098Z,101985.73
2018-09-25T16:19:26.334Z,101985.86
2018-09-25T16:21:59.457Z,101985.42
2018-09-25T16:24:33.216Z,101985.45
2018-09-25T16:27:05.962Z,101985.95
2018-09-25T16:29:38.921Z,101982.88
2018-09-25T16:32:11.674Z,101991.92
2018-09-25T16:34:44.267Z,101995.50
2018-09-25T16:37:18.537Z,101997.70
2018-09-25T16:39:51.259Z,102002.72
2018-09-25T16:42:25.287Z,102004.56
2018-09-25T16:44:57.878Z,102005.16
2018-09-25T16:47:40.251Z,102005.64
2018-09-25T16:50:12.851Z,102009.29
2018-09-25T16:52:46.092Z,102007.57
2018-09-25T16:55:18.892Z,102007.78
2018-09-25T16:57:51.910Z,102011.01
2018-09-25T17:00:24.652Z,102009.87
2018-09-25T17:02:57.264Z,102009.53
2018-09-25T17:05:30.451Z,102013.54
2018-09-25T17:08:04.286Z,102009.63
2018-09-25T17:10:39.219Z,102013.91
2018-09-25T17:13:13.135Z,102016.08
2018-09-25T17:15:46.457Z,102020.52
2018-09-25T17:18:19.846Z,102024.97
2018-09-25T17:20:52.926Z,102021.73
2018-09-25T17:23:26.342Z,102025.70
2018-09-25T17:25:58.936Z,102023.71
2018-09-25T17:28:34.363Z,102023.44
2018-09-25T17:31:10.446Z,102028.12
2018-09-25T17:33:43.241Z,102025.96
2018-09-25T17:36:15.961Z,102026.55
2018-09-25T17:38:48.760Z,102028.39
2018-09-25T17:41:23.094Z,102028.34
2018-09-25T17:43:56.977Z,102035.66
2018-09-25T17:46:31.191Z,102035.09
2018-09-25T17:49:03.817Z,102041.33
2018-09-25T17:51:36.910Z,102042.70
2018-09-25T17:54:09.477Z,102039.57
2018-09-25T17:56:42.772Z,102042.23
2018-09-25T17:59:16.632Z,102045.39
2018-09-25T18:01:49.495Z,102036.98
2018-09-25T18:04:24.239Z,102030.80
2018-09-25T18:06:57.961Z,102033.94
2018-09-25T18:09:30.672Z,102048.05
2018-09-25T18:12:03.381Z,102051.08
2018-09-25T18:14:38.357Z,102040.88
2018-09-25T18:17:11.119Z,102047.97
2018-09-25T18:19:44.377Z,102045.70
2018-09-25T18:22:18.439Z,102043.55
2018-09-25T18:24:55.287Z,102040.52
2018-09-25T18:27:31.070Z,102045.97
2018-09-25T18:30:04.318Z,102041.08
2018-09-25T18:32:37.679Z,102037.08
2018-09-25T18:35:13.097Z,102037.74
2018-09-25T18:37:45.932Z,102037.57
2018-09-25T18:40:18.673Z,102049.78
2018-09-25T18:42:53.133Z,102044.66
2018-09-25T18:45:26.751Z,102042.61
2018-09-25T18:48:02.842Z,102046.73
2018-09-25T18:50:36.454Z,102045.06
2018-09-25T18:53:09.225Z,102046.00
2018-09-25T18:55:42.278Z,102043.43
2018-09-25T18:58:15.068Z,102045.67
2018-09-25T19:00:47.811Z,102052.88
2018-09-25T19:03:20.936Z,102052.63
2018-09-25T19:05:53.643Z,102051.17
2018-09-25T19:08:27.225Z,102049.33
2018-09-25T19:11:00.554Z,102049.80
2018-09-25T19:13:33.506Z,102047.55
2018-09-25T19:16:08.322Z,102057.09
2018-09-25T19:18:42.062Z,102061.00
2018-09-25T19:21:15.034Z,102051.22
2018-09-25T19:23:49.096Z,102049.75
2018-09-25T19:26:24.207Z,102058.06
2018-09-25T19:28:59.215Z,102057.58
2018-09-25T19:31:31.922Z,102061.51
2018-09-25T19:34:04.666Z,102074.17
2018-09-25T19:36:38.995Z,102073.17
2018-09-25T19:39:13.381Z,102078.83
2018-09-25T19:41:46.560Z,102077.30
2018-09-25T19:44:19.597Z,102078.02
2018-09-25T19:46:52.339Z,102075.06
2018-09-25T19:49:25.044Z,102069.08
2018-09-25T19:51:59.041Z,102063.87
2018-09-25T19:54:31.658Z,102064.00
2018-09-25T19:57:04.434Z,102061.13
2018-09-25T19:59:37.459Z,102046.27
2018-09-25T20:02:10.152Z,102032.72
2018-09-25T20:04:42.729Z,102034.15
2018-09-25T20:07:16.615Z,102030.30
2018-09-25T20:09:50.908Z,102022.51
2018-09-25T20:12:24.674Z,102031.51
2018-09-25T20:14:58.187Z,102041.52
2018-09-25T20:20:19.250Z,102030.27
2018-09-25T20:22:52.307Z,102031.25
2018-09-25T20:25:25.616Z,102024.70
2018-09-25T20:28:00.398Z,102011.56
2018-09-25T20:30:34.338Z,102016.47
2018-09-25T20:33:07.527Z,102023.64
2018-09-25T20:35:41.786Z,102025.89
2018-09-25T20:38:14.434Z,102031.34
2018-09-25T20:40:48.631Z,102032.00
2018-09-25T20:43:22.919Z,102031.25
2018-09-25T20:45:55.787Z,102030.02
2018-09-25T20:48:28.650Z,102030.14
2018-09-25T20:51:01.401Z,102029.38
2018-09-25T20:53:38.491Z,102031.28
2018-09-25T20:56:11.245Z,102033.10
2018-09-25T20:58:44.375Z,102023.02
2018-09-25T21:01:17.800Z,102018.20
2018-09-25T21:03:51.743Z,102011.16
2018-09-25T21:06:27.528Z,102009.88
2018-09-25T21:09:02.540Z,102007.70
2018-09-25T21:11:35.175Z,102009.66
2018-09-25T21:14:08.794Z,102019.86
2018-09-25T21:16:41.483Z,102016.86
2018-09-25T21:19:14.737Z,102017.83
2018-09-25T21:21:47.746Z,102020.60
2018-09-25T21:24:20.484Z,102018.47
2018-09-25T21:26:53.535Z,102007.46
2018-09-25T21:29:29.231Z,102026.52
2018-09-25T21:32:05.419Z,102016.95
2018-09-25T21:34:38.418Z,102016.16
2018-09-25T21:37:14.594Z,102009.61
2018-09-25T21:39:47.616Z,102010.14
2018-09-25T21:42:20.331Z,102014.23
2018-09-25T21:44:53.074Z,102012.95
2018-09-25T21:47:26.299Z,102002.39
2018-09-25T21:49:59.804Z,101989.61
2018-09-25T21:52:33.206Z,101976.84
2018-09-25T21:55:06.726Z,101973.74
2018-09-25T21:57:40.083Z,101961.77
2018-09-25T22:00:12.762Z,101958.69
2018-09-25T22:02:45.310Z,101952.53
2018-09-25T22:05:18.576Z,101943.30
2018-09-25T22:07:51.349Z,101927.44
2018-09-25T22:10:24.325Z,101923.58
2018-09-25T22:12:57.743Z,101914.91
2018-09-25T22:15:32.144Z,101919.41
2018-09-25T22:18:05.345Z,101925.20
2018-09-25T22:20:37.944Z,101926.56
2018-09-25T22:23:11.431Z,101919.14
2018-09-25T22:25:44.860Z,101927.58
2018-09-25T22:28:17.432Z,101928.10
2018-09-25T22:30:50.639Z,101930.75
2018-09-25T22:33:24.521Z,101936.98
2018-09-25T22:35:57.449Z,101926.91
2018-09-25T22:38:30.216Z,101927.34
2018-09-25T22:41:04.400Z,101921.60
2018-09-25T22:43:37.700Z,101914.89
2018-09-25T22:46:10.968Z,101917.55
2018-09-25T22:48:45.009Z,101911.39
2018-09-25T22:51:18.261Z,101910.52
2018-09-25T22:53:50.851Z,101904.06
2018-09-25T22:56:24.678Z,101902.45
2018-09-25T22:58:58.241Z,101903.87
2018-09-25T23:01:31.302Z,101904.08
2018-09-25T23:04:03.908Z,101900.66
2018-09-25T23:06:36.566Z,101905.73
2018-09-25T23:09:09.086Z,101902.72
2018-09-25T23:11:41.843Z,101888.63
2018-09-25T23:14:14.913Z,101890.87
2018-09-25T23:16:48.017Z,101890.87
2018-09-25T23:19:21.756Z,101885.22
2018-09-25T23:21:54.457Z,101900.23
2018-09-25T23:24:27.339Z,101902.48
2018-09-25T23:27:00.803Z,101895.45
2018-09-25T23:29:34.206Z,101908.30
2018-09-25T23:32:07.294Z,101918.49
2018-09-25T23:34:39.914Z,101919.90
2018-09-25T23:37:12.962Z,101922.30
2018-09-25T23:40:48.842Z,101927.64
2018-09-25T23:44:23.889Z,101927.95
2018-09-25T23:46:57.018Z,101933.11
2018-09-25T23:49:38.551Z,101939.05
2018-09-25T23:52:27.822Z,101934.42
2018-09-25T23:56:09.116Z,101936.73
2018-09-25T23:58:48.890Z,101932.98
